createdAt,value
2023-03-17T00:03:52.894Z,29.60
2023-03-17T00:08:56.559Z,25.20
2023-03-17T00:13:58.992Z,25.80
2023-03-17T00:19:02.030Z,24.10
2023-03-17T00:24:04.604Z,21.40
2023-03-17T00:29:08.311Z,20.80
2023-03-17T00:34:16.593Z,16.80
2023-03-17T00:39:19.603Z,16.80
2023-03-17T00:44:22.049Z,15.50
2023-03-17T00:49:26.199Z,16.00
2023-03-17T00:54:28.776Z,15.30
2023-03-17T00:59:38.973Z,16.20
2023-03-17T01:04:47.572Z,14.70
2023-03-17T01:14:55.304Z,10.80
2023-03-17T01:19:58.399Z,12.70
2023-03-17T01:25:01.556Z,13.80
2023-03-17T01:30:06.152Z,13.20
2023-03-17T01:35:08.858Z,12.10
2023-03-17T01:40:17.261Z,10.80
2023-03-17T01:45:49.689Z,10.60
2023-03-17T01:50:53.814Z,9.50
2023-03-17T01:55:57.859Z,11.30
2023-03-17T02:01:01.368Z,11.60
2023-03-17T02:06:04.820Z,9.50
2023-03-17T02:11:07.271Z,8.60
2023-03-17T02:16:17.182Z,9.30
2023-03-17T02:21:31.211Z,9.30
2023-03-17T02:26:35.488Z,9.10
2023-03-17T02:31:38.163Z,7.90
2023-03-17T02:36:40.718Z,8.90
2023-03-17T02:41:43.524Z,8.30
2023-03-17T02:46:46.880Z,8.60
2023-03-17T02:51:49.359Z,9.80
2023-03-17T02:56:51.794Z,8.80
2023-03-17T03:01:55.983Z,5.80
2023-03-17T03:06:58.411Z,8.20
2023-03-17T03:12:00.915Z,7.80
2023-03-17T03:17:04.336Z,8.90
2023-03-17T03:22:07.009Z,8.30
2023-03-17T03:27:09.498Z,8.70
2023-03-17T03:32:12.116Z,8.10
2023-03-17T03:37:15.193Z,7.70
2023-03-17T03:42:18.077Z,10.20
2023-03-17T03:47:20.599Z,10.30
2023-03-17T03:52:23.352Z,10.30
2023-03-17T03:57:25.945Z,9.90
2023-03-17T04:02:28.514Z,9.10
2023-03-17T04:07:31.289Z,6.80
2023-03-17T04:12:33.750Z,9.90
2023-03-17T04:17:36.509Z,11.40
2023-03-17T04:22:39.688Z,9.40
2023-03-17T04:27:43.266Z,10.90
2023-03-17T04:32:46.395Z,11.00
2023-03-17T04:37:50.358Z,11.30
2023-03-17T04:42:52.881Z,10.70
2023-03-17T04:47:55.748Z,11.10
2023-03-17T04:52:58.205Z,11.60
2023-03-17T04:58:01.337Z,11.10
2023-03-17T05:03:07.123Z,12.60
2023-03-17T05:08:13.679Z,9.80
2023-03-17T05:13:16.400Z,13.80
2023-03-17T05:18:20.846Z,13.10
2023-03-17T05:23:23.398Z,14.90
2023-03-17T05:28:26.813Z,13.20
2023-03-17T05:33:29.552Z,14.90
2023-03-17T05:38:32.264Z,15.20
2023-03-17T05:43:34.695Z,13.90
2023-03-17T05:48:37.200Z,13.30
2023-03-17T05:53:39.722Z,23.20
2023-03-17T05:58:42.539Z,19.50
2023-03-17T06:03:45.190Z,17.10
2023-03-17T06:08:47.884Z,19.70
2023-03-17T06:13:50.396Z,15.80
2023-03-17T06:18:52.900Z,17.40
2023-03-17T06:23:55.344Z,17.00
2023-03-17T06:28:57.816Z,19.00
2023-03-17T06:34:00.307Z,24.90
2023-03-17T06:39:03.003Z,19.70
2023-03-17T06:44:06.201Z,15.50
2023-03-17T06:49:08.902Z,13.90
2023-03-17T06:54:12.255Z,14.40
2023-03-17T06:59:14.813Z,13.30
2023-03-17T07:04:19.525Z,14.10
2023-03-17T07:09:22.123Z,13.70
2023-03-17T07:14:26.977Z,14.30
2023-03-17T07:19:31.103Z,11.60
2023-03-17T07:24:34.253Z,11.90
2023-03-17T07:29:36.789Z,13.60
2023-03-17T07:34:39.884Z,12.70
2023-03-17T07:39:42.584Z,12.60
2023-03-17T07:44:45.477Z,10.60
2023-03-17T07:49:48.072Z,10.80
2023-03-17T07:54:52.009Z,11.80
2023-03-17T07:59:54.783Z,12.10
2023-03-17T08:04:57.259Z,11.60
2023-03-17T08:09:59.900Z,10.20
2023-03-17T08:15:03.539Z,10.00
2023-03-17T08:20:06.565Z,10.80
2023-03-17T08:25:09.783Z,7.40
2023-03-17T08:30:12.904Z,9.80
2023-03-17T08:35:16.898Z,9.10
2023-03-17T08:40:19.854Z,9.00
2023-03-17T08:45:22.838Z,7.30
2023-03-17T08:50:25.559Z,8.20
2023-03-17T08:55:28.294Z,8.30
2023-03-17T09:00:31.028Z,7.40
2023-03-17T09:05:36.900Z,7.80
2023-03-17T09:10:43.111Z,7.70
2023-03-17T09:15:46.747Z,7.00
2023-03-17T09:20:49.208Z,6.80
2023-03-17T09:25:52.403Z,7.30
2023-03-17T09:30:59.359Z,7.10
2023-03-17T09:36:03.079Z,6.20
2023-03-17T09:41:41.896Z,7.30
2023-03-17T09:47:18.163Z,8.30
2023-03-17T09:52:29.079Z,7.40
2023-03-17T09:57:35.663Z,7.50
2023-03-17T10:02:38.455Z,6.20
2023-03-17T10:07:47.057Z,5.90
2023-03-17T10:13:08.399Z,5.90
2023-03-17T10:18:13.727Z,5.50
2023-03-17T10:23:20.407Z,5.40
2023-03-17T10:28:29.736Z,5.60
2023-03-17T10:33:33.104Z,5.30
2023-03-17T10:38:36.866Z,6.90
2023-03-17T10:43:48.610Z,5.50
2023-03-17T10:48:54.360Z,6.20
2023-03-17T10:54:00.516Z,5.70
2023-03-17T10:59:09.018Z,6.40
2023-03-17T11:04:30.042Z,5.80
2023-03-17T11:14:44.336Z,4.40
2023-03-17T11:20:05.795Z,5.30
2023-03-17T11:25:25.968Z,4.80
2023-03-17T11:30:35.266Z,4.10
2023-03-17T11:36:07.034Z,4.40
2023-03-17T11:41:26.165Z,4.60
2023-03-17T11:46:29.870Z,4.80
2023-03-17T11:51:38.162Z,5.60
2023-03-17T11:56:51.749Z,4.40
2023-03-17T12:02:16.023Z,5.40
2023-03-17T12:07:55.059Z,4.50
2023-03-17T12:13:16.826Z,5.00
2023-03-17T12:18:30.742Z,5.70
2023-03-17T12:23:47.993Z,4.30
2023-03-17T12:29:00.146Z,4.30
2023-03-17T12:34:25.777Z,4.50
2023-03-17T12:39:34.045Z,4.50
2023-03-17T12:44:39.451Z,3.50
2023-03-17T12:49:45.077Z,4.40
2023-03-17T12:54:51.517Z,3.80
2023-03-17T13:00:03.475Z,4.00
2023-03-17T13:05:13.038Z,4.60
2023-03-17T13:10:37.282Z,5.20
2023-03-17T13:15:40.332Z,4.80
2023-03-17T13:21:02.039Z,4.90
2023-03-17T13:26:04.536Z,5.80
2023-03-17T13:31:32.048Z,4.70
2023-03-17T13:36:44.353Z,4.90
2023-03-17T13:42:11.842Z,5.20
2023-03-17T13:47:25.095Z,5.10
2023-03-17T13:52:32.244Z,5.70
2023-03-17T13:57:37.588Z,5.40
2023-03-17T14:02:43.573Z,5.90
2023-03-17T14:07:56.993Z,4.40
2023-03-17T14:13:21.586Z,6.80
2023-03-17T14:18:42.447Z,6.30
2023-03-17T14:23:56.487Z,5.20
2023-03-17T14:29:01.042Z,5.20
2023-03-17T14:34:03.644Z,6.10
2023-03-17T14:39:07.092Z,4.20
2023-03-17T14:44:09.814Z,5.50
2023-03-17T14:49:22.569Z,4.60
2023-03-17T14:54:35.720Z,4.60
2023-03-17T14:59:41.300Z,5.50
2023-03-17T15:04:58.523Z,6.10
2023-03-17T15:10:04.407Z,5.80
2023-03-17T15:15:14.248Z,5.60
2023-03-17T15:20:19.856Z,5.90
2023-03-17T15:25:42.208Z,6.00
2023-03-17T15:30:48.688Z,6.90
2023-03-17T15:35:54.498Z,9.10
2023-03-17T15:40:57.986Z,7.70
2023-03-17T15:46:04.088Z,6.90
2023-03-17T15:51:07.074Z,7.30
2023-03-17T15:56:18.839Z,8.00
2023-03-17T16:01:21.676Z,6.10
2023-03-17T16:06:25.467Z,6.70
2023-03-17T16:11:31.234Z,7.80
2023-03-17T16:16:39.606Z,6.80
2023-03-17T16:21:42.349Z,8.00
2023-03-17T16:26:44.843Z,9.30
2023-03-17T16:31:50.052Z,7.90
2023-03-17T16:36:54.154Z,8.60
2023-03-17T16:41:57.446Z,9.70
2023-03-17T16:47:00.499Z,10.20
2023-03-17T16:52:03.083Z,8.20
2023-03-17T16:57:07.830Z,7.90
2023-03-17T17:02:15.793Z,8.10
2023-03-17T17:07:18.301Z,8.00
2023-03-17T17:12:21.052Z,6.30
2023-03-17T17:17:23.621Z,7.70
2023-03-17T17:22:26.368Z,7.20
2023-03-17T17:27:29.126Z,8.70
2023-03-17T17:32:32.002Z,9.20
2023-03-17T17:37:35.267Z,9.20
2023-03-17T17:42:37.880Z,7.50
2023-03-17T17:47:40.633Z,9.10
2023-03-17T17:52:43.158Z,9.10
2023-03-17T17:57:45.718Z,10.10
2023-03-17T18:02:48.225Z,8.90
2023-03-17T18:07:51.224Z,8.80
2023-03-17T18:12:54.014Z,8.90
2023-03-17T18:17:56.806Z,7.60
2023-03-17T18:22:59.364Z,7.20
2023-03-17T18:28:01.980Z,7.40
2023-03-17T18:33:13.361Z,7.60
2023-03-17T18:38:16.090Z,7.30
2023-03-17T18:43:18.702Z,9.00
2023-03-17T18:48:21.558Z,8.80
2023-03-17T18:53:24.955Z,8.90
2023-03-17T18:58:28.744Z,10.90
2023-03-17T19:03:32.373Z,8.80
2023-03-17T19:08:34.946Z,10.50
2023-03-17T19:13:38.066Z,8.60
2023-03-17T19:18:42.357Z,13.50
2023-03-17T19:23:45.252Z,11.20
2023-03-17T19:28:47.783Z,8.70
2023-03-17T19:33:51.740Z,5.50
2023-03-17T19:38:54.223Z,6.00
2023-03-17T19:43:56.718Z,8.20
2023-03-17T19:48:59.688Z,7.50
2023-03-17T19:54:02.195Z,8.80
2023-03-17T19:59:06.161Z,8.80
2023-03-17T20:04:11.267Z,8.40
2023-03-17T20:09:17.090Z,9.60
2023-03-17T20:14:20.741Z,9.90
2023-03-17T20:19:23.881Z,12.40
2023-03-17T20:24:28.636Z,9.30
2023-03-17T20:29:31.503Z,8.40
2023-03-17T20:34:34.676Z,8.00
2023-03-17T20:39:37.845Z,10.00
2023-03-17T20:44:41.938Z,7.30
2023-03-17T20:49:45.739Z,10.80
2023-03-17T20:54:48.631Z,9.50
2023-03-17T20:59:54.023Z,8.20
2023-03-17T21:04:56.750Z,10.00
2023-03-17T21:10:01.887Z,9.20
2023-03-17T21:15:07.745Z,8.60
2023-03-17T21:20:14.705Z,9.70
2023-03-17T21:25:17.711Z,6.90
2023-03-17T21:30:20.289Z,8.50
2023-03-17T21:35:24.887Z,8.90
2023-03-17T21:40:31.083Z,7.40
2023-03-17T21:45:33.800Z,7.30
2023-03-17T21:50:37.106Z,8.80
2023-03-17T21:55:41.309Z,8.60
2023-03-17T22:00:45.984Z,7.80
2023-03-17T22:05:50.707Z,8.00
2023-03-17T22:10:53.215Z,9.30
2023-03-17T22:15:59.493Z,6.20
2023-03-17T22:21:03.004Z,7.60
2023-03-17T22:26:05.684Z,7.40
2023-03-17T22:31:13.436Z,7.50
2023-03-17T22:36:16.380Z,8.90
2023-03-17T22:41:22.128Z,7.70
2023-03-17T22:46:25.404Z,7.80
2023-03-17T22:51:28.478Z,8.70
2023-03-17T22:56:31.129Z,8.50
2023-03-17T23:01:33.589Z,7.00
2023-03-17T23:06:36.656Z,6.50
2023-03-17T23:11:40.288Z,9.10
2023-03-17T23:16:43.119Z,8.80
2023-03-17T23:21:46.177Z,8.30
2023-03-17T23:26:48.933Z,6.40
2023-03-17T23:31:51.466Z,8.10
2023-03-17T23:36:54.132Z,7.90
2023-03-17T23:41:56.645Z,7.40
2023-03-17T23:46:59.359Z,8.00
2023-03-17T23:52:02.422Z,7.50
2023-03-17T23:57:06.416Z,8.50
